Time;durP1;ratioP1;P1;durP2;ratioP2;P2;SDS_P1;SDS_P2;PMS_P1;PMS_P2;Temp;Humidity;BMP_temperature;BMP_pressure;BME280_temperature;BME280_humidity;BME280_pressure;Samples;Min_cycle;Max_cycle;Signal;HPM_P1;HPM_P2
2024/04/20 00:00:06;;;;;;;16.00;10.80;;;;;;;6.31;85.34;99372.59;110861;1208;139536;-66
2024/04/20 00:02:31;;;;;;;16.60;10.50;;;;;;;6.32;85.28;99376.98;111312;1211;99284;-66
2024/04/20 00:04:56;;;;;;;16.20;11.20;;;;;;;6.32;85.43;99380.00;110968;1211;139072;-66
2024/04/20 00:07:22;;;;;;;16.80;10.10;;;;;;;6.35;85.41;99385.70;111028;1208;99460;-65
2024/04/20 00:09:48;;;;;;;17.60;11.10;;;;;;;6.35;85.49;99380.91;111100;1211;99059;-66
2024/04/20 00:12:15;;;;;;;14.00;9.70;;;;;;;6.35;85.41;99388.18;111126;1206;139186;-66
2024/04/20 00:14:40;;;;;;;15.70;11.30;;;;;;;6.35;85.46;99387.30;110992;1208;99001;-66
2024/04/20 00:17:05;;;;;;;16.90;11.00;;;;;;;6.35;85.61;99392.59;111083;1207;138683;-66
2024/04/20 00:19:30;;;;;;;20.80;12.30;;;;;;;6.36;85.54;99395.75;110997;1211;99064;-66
2024/04/20 00:21:56;;;;;;;19.60;12.20;;;;;;;6.38;85.51;99391.42;111101;1210;99031;-66
2024/04/20 00:24:22;;;;;;;21.10;11.70;;;;;;;6.39;85.68;99394.02;110853;1208;138642;-66
2024/04/20 00:26:47;;;;;;;20.20;12.00;;;;;;;6.39;85.66;99396.87;111090;1211;99055;-66
2024/04/20 00:29:13;;;;;;;19.30;12.10;;;;;;;6.39;85.78;99400.59;110963;1211;140039;-66
2024/04/20 00:31:38;;;;;;;19.30;12.20;;;;;;;6.40;85.65;99403.92;111018;1208;107717;-66
2024/04/20 00:34:03;;;;;;;16.80;10.30;;;;;;;6.38;85.56;99402.42;111040;1211;98969;-66
2024/04/20 00:36:28;;;;;;;16.80;10.30;;;;;;;6.36;85.55;99403.93;110995;1208;140012;-66
2024/04/20 00:38:54;;;;;;;19.30;11.60;;;;;;;6.35;85.75;99405.53;111037;1211;99110;-66
2024/04/20 00:41:20;;;;;;;18.10;11.30;;;;;;;6.36;85.75;99406.23;110881;1211;139634;-66
2024/04/20 00:43:45;;;;;;;15.50;10.50;;;;;;;6.37;85.88;99405.08;111019;1208;99057;-66
2024/04/20 00:46:10;;;;;;;16.20;10.20;;;;;;;6.37;85.86;99405.29;111033;1208;99369;-66
2024/04/20 00:48:36;;;;;;;17.20;10.10;;;;;;;6.37;85.80;99404.92;110936;1208;138663;-66
2024/04/20 00:51:02;;;;;;;17.40;10.80;;;;;;;6.39;85.89;99406.61;111148;1208;98975;-66
2024/04/20 00:53:29;;;;;;;15.90;10.30;;;;;;;6.41;85.95;99411.29;110928;1207;138872;-66
2024/04/20 00:55:55;;;;;;;17.80;10.90;;;;;;;6.41;85.94;99409.52;111027;1212;99036;-66
2024/04/20 00:58:20;;;;;;;19.70;10.30;;;;;;;6.43;85.89;99410.35;110819;1212;138779;-66
2024/04/20 01:00:47;;;;;;;13.40;9.50;;;;;;;6.43;85.97;99409.11;110964;1212;98989;-66
2024/04/20 01:03:13;;;;;;;12.70;8.90;;;;;;;6.41;86.02;99413.06;110930;1207;99196;-66
2024/04/20 01:05:39;;;;;;;12.50;8.50;;;;;;;6.41;85.94;99414.86;110962;1208;138715;-66
2024/04/20 01:08:05;;;;;;;11.90;8.40;;;;;;;6.41;86.04;99415.58;110912;1212;99050;-66
2024/04/20 01:10:31;;;;;;;14.90;10.20;;;;;;;6.42;86.08;99416.23;110850;1207;140494;-65
2024/04/20 01:13:07;;;;;;;14.30;10.00;;;;;;;6.44;86.14;99419.67;111077;1207;99274;-66
2024/04/20 01:15:33;;;;;;;15.60;9.60;;;;;;;6.45;86.09;99426.19;110964;1207;100654;-68
2024/04/20 01:17:58;;;;;;;17.00;10.30;;;;;;;6.46;86.16;99421.20;110974;1212;140701;-66
2024/04/20 01:20:24;;;;;;;12.90;9.70;;;;;;;6.47;86.28;99424.87;111108;1212;98960;-66
2024/04/20 01:22:49;;;;;;;15.30;10.40;;;;;;;6.48;86.29;99427.83;111228;1209;140523;-68
2024/04/20 01:25:15;;;;;;;15.80;10.40;;;;;;;6.49;86.24;99429.95;110996;1212;98985;-66
2024/04/20 01:27:41;;;;;;;15.60;10.00;;;;;;;6.49;86.29;99431.70;111075;1212;99046;-66
2024/04/20 01:30:08;;;;;;;14.70;10.20;;;;;;;6.50;86.27;99435.20;110903;1213;140410;-66
2024/04/20 01:32:53;;;;;;;16.50;10.50;;;;;;;6.50;86.32;99437.31;111059;1211;99050;-66
2024/04/20 01:35:20;;;;;;;15.60;10.40;;;;;;;6.50;86.18;99436.42;110748;1207;138708;-66
2024/04/20 01:37:46;;;;;;;14.00;9.00;;;;;;;6.51;86.35;99439.96;110990;1212;99099;-66
2024/04/20 01:40:11;;;;;;;14.50;9.10;;;;;;;6.51;86.38;99439.59;111012;1207;98954;-66
2024/04/20 01:42:37;;;;;;;14.70;9.50;;;;;;;6.50;86.33;99436.27;111023;1212;138389;-66
2024/04/20 01:45:02;;;;;;;13.60;8.60;;;;;;;6.49;86.36;99438.79;110997;1212;99346;-66
2024/04/20 01:47:28;;;;;;;14.80;9.30;;;;;;;6.49;86.38;99442.34;110904;1211;138492;-66
2024/04/20 01:49:54;;;;;;;17.60;11.40;;;;;;;6.49;86.46;99441.08;111268;1205;100435;-66
2024/04/20 01:52:19;;;;;;;15.30;10.00;;;;;;;6.48;86.55;99443.80;110930;1206;139143;-66
2024/04/20 01:54:44;;;;;;;14.90;9.80;;;;;;;6.48;86.69;99446.29;111094;1206;100456;-66
2024/04/20 01:57:10;;;;;;;13.00;9.10;;;;;;;6.49;86.66;99446.09;111058;1213;99048;-67
2024/04/20 01:59:35;;;;;;;14.20;10.40;;;;;;;6.49;86.71;99450.52;110987;1206;138636;-66
2024/04/20 02:02:00;;;;;;;17.10;11.10;;;;;;;6.50;86.62;99452.80;111089;1211;99006;-66
2024/04/20 02:04:27;;;;;;;14.30;9.20;;;;;;;6.49;86.71;99452.64;110975;1211;138861;-66
2024/04/20 02:06:53;;;;;;;16.50;10.30;;;;;;;6.50;86.57;99455.27;111117;1211;99038;-66
2024/04/20 02:09:18;;;;;;;15.50;10.30;;;;;;;6.50;86.59;99455.09;111040;1206;112997;-66
2024/04/20 02:11:44;;;;;;;18.80;11.30;;;;;;;6.50;86.87;99458.78;111044;1210;140208;-66
2024/04/20 02:14:10;;;;;;;17.00;10.70;;;;;;;6.51;86.64;99461.78;111159;1211;98932;-66
2024/04/20 02:16:35;;;;;;;18.00;10.70;;;;;;;6.50;86.69;99467.14;110972;1206;139188;-66
2024/04/20 02:19:00;;;;;;;22.90;11.80;;;;;;;6.50;86.75;99468.94;111108;1211;99046;-66
2024/04/20 02:21:26;;;;;;;16.30;10.60;;;;;;;6.49;86.80;99472.31;111114;1211;99025;-66
2024/04/20 02:23:51;;;;;;;17.80;11.30;;;;;;;6.48;86.86;99472.55;110979;1205;139592;-66
2024/04/20 02:26:16;;;;;;;20.30;12.00;;;;;;;6.48;86.83;99470.26;111093;1206;99046;-66
2024/04/20 02:28:42;;;;;;;16.60;10.30;;;;;;;6.49;86.92;99473.07;110949;1211;139119;-67
2024/04/20 02:31:07;;;;;;;19.70;9.80;;;;;;;6.48;86.80;99472.20;111164;1219;98950;-66
2024/04/20 02:33:32;;;;;;;15.70;9.80;;;;;;;6.47;86.69;99477.58;111026;1212;99592;-67
2024/04/20 02:35:57;;;;;;;13.10;8.50;;;;;;;6.45;86.72;99477.85;110994;1206;138444;-66
2024/04/20 02:38:22;;;;;;;14.30;10.10;;;;;;;6.44;86.71;99483.73;111087;1206;99126;-66
2024/04/20 02:40:48;;;;;;;13.70;9.20;;;;;;;6.44;86.85;99484.08;110971;1206;139116;-66
2024/04/20 02:43:13;;;;;;;13.30;9.40;;;;;;;6.45;86.97;99488.64;111127;1206;99007;-67
2024/04/20 02:45:38;;;;;;;15.70;9.40;;;;;;;6.46;86.87;99489.53;111001;1210;99012;-67
2024/04/20 02:48:04;;;;;;;15.00;9.70;;;;;;;6.44;86.91;99492.08;111014;1211;138547;-67
2024/04/20 02:50:29;;;;;;;13.10;8.50;;;;;;;6.44;86.93;99492.44;111082;1219;100962;-67
2024/04/20 02:52:55;;;;;;;16.30;8.80;;;;;;;6.43;86.91;99491.27;110494;1211;140196;-67
2024/04/20 02:55:20;;;;;;;14.50;8.90;;;;;;;6.43;87.01;99495.50;110616;1206;100814;-67
2024/04/20 02:57:48;;;;;;;15.00;9.30;;;;;;;6.44;87.04;99497.92;110590;1210;100541;-67
2024/04/20 03:00:14;;;;;;;15.10;8.80;;;;;;;6.45;87.11;99503.02;110534;1209;139495;-67
2024/04/20 03:02:40;;;;;;;11.80;8.00;;;;;;;6.46;87.13;99506.02;110952;1205;100500;-66
2024/04/20 03:05:05;;;;;;;12.00;8.30;;;;;;;6.47;86.96;99507.05;110499;1209;138733;-67
2024/04/20 03:07:30;;;;;;;13.00;9.00;;;;;;;6.47;87.10;99506.32;110837;1206;99035;-66
2024/04/20 03:09:55;;;;;;;14.60;8.70;;;;;;;6.46;87.21;99511.48;111177;1210;99039;-66
2024/04/20 03:12:23;;;;;;;12.20;7.90;;;;;;;6.47;87.07;99510.60;110859;1211;139423;-67
2024/04/20 03:14:51;;;;;;;11.60;7.50;;;;;;;6.47;87.03;99512.89;111014;1206;98900;-67
2024/04/20 03:17:18;;;;;;;13.40;7.80;;;;;;;6.45;87.12;99517.75;110892;1208;140021;-67
2024/04/20 03:19:45;;;;;;;11.10;7.80;;;;;;;6.45;87.03;99525.40;111053;1206;99057;-67
2024/04/20 03:22:10;;;;;;;11.10;6.80;;;;;;;6.45;87.15;99524.52;111108;1206;99811;-67
2024/04/20 03:24:37;;;;;;;12.00;7.00;;;;;;;6.44;87.17;99527.41;110939;1211;139213;-66
2024/04/20 03:27:03;;;;;;;11.40;7.70;;;;;;;6.44;87.25;99530.59;111035;1206;98961;-67
2024/04/20 03:29:29;;;;;;;12.50;7.90;;;;;;;6.43;87.04;99530.11;110910;1211;139478;-67
2024/04/20 03:31:54;;;;;;;11.30;7.40;;;;;;;6.44;87.15;99532.20;111234;1206;98948;-67
2024/04/20 03:34:19;;;;;;;12.00;7.40;;;;;;;6.45;87.13;99534.27;110991;1206;139546;-67
2024/04/20 03:36:44;;;;;;;12.60;7.30;;;;;;;6.47;87.22;99535.78;111102;1206;99035;-66
2024/04/20 03:39:11;;;;;;;12.00;7.50;;;;;;;6.46;87.13;99538.48;111151;1206;98993;-67
2024/04/20 03:41:36;;;;;;;11.80;7.80;;;;;;;6.45;87.11;99541.17;111008;1206;138511;-67
2024/04/20 03:44:01;;;;;;;10.70;7.40;;;;;;;6.45;87.19;99543.30;111087;1212;100263;-66
2024/04/20 03:46:26;;;;;;;13.50;8.20;;;;;;;6.45;87.21;99547.59;111016;1206;138957;-66
2024/04/20 03:48:52;;;;;;;12.20;8.40;;;;;;;6.45;87.21;99547.60;111079;1212;99111;-66
2024/04/20 03:51:17;;;;;;;12.30;8.10;;;;;;;6.44;87.09;99550.27;111082;1211;100501;-66
2024/04/20 03:53:42;;;;;;;12.60;8.90;;;;;;;6.44;87.18;99554.89;110953;1206;140202;-66
2024/04/20 03:56:07;;;;;;;11.50;8.20;;;;;;;6.44;87.20;99558.81;111208;1211;98955;-66
2024/04/20 03:58:32;;;;;;;15.40;8.70;;;;;;;6.44;87.19;99560.04;110973;1211;142648;-66
2024/04/20 04:00:58;;;;;;;14.10;9.50;;;;;;;6.45;87.20;99565.88;111135;1212;98983;-66
2024/04/20 04:03:26;;;;;;;12.50;8.50;;;;;;;6.45;87.27;99568.70;110982;1207;99393;-66
2024/04/20 04:05:53;;;;;;;12.90;8.20;;;;;;;6.45;87.28;99576.48;111053;1206;139038;-66
2024/04/20 04:08:19;;;;;;;13.60;9.20;;;;;;;6.46;87.08;99579.48;110977;1211;101077;-66
2024/04/20 04:10:45;;;;;;;13.60;8.60;;;;;;;6.45;87.16;99585.73;111029;1212;139484;-66
2024/04/20 04:13:12;;;;;;;13.20;8.00;;;;;;;6.47;87.32;99588.31;111079;1206;99045;-66
2024/04/20 04:15:38;;;;;;;13.20;7.60;;;;;;;6.48;87.25;99592.71;111075;1211;98935;-66
2024/04/20 04:18:03;;;;;;;9.80;6.90;;;;;;;6.48;87.31;99596.58;111013;1210;138711;-66
2024/04/20 04:20:29;;;;;;;12.10;7.50;;;;;;;6.48;87.11;99599.80;111140;1212;99070;-66
2024/04/20 04:22:54;;;;;;;10.80;7.30;;;;;;;6.46;87.27;99602.02;111020;1211;138963;-67
2024/04/20 04:25:19;;;;;;;12.70;7.40;;;;;;;6.47;87.34;99606.77;111071;1206;99146;-66
2024/04/20 04:27:44;;;;;;;9.00;6.80;;;;;;;6.46;87.18;99610.17;111071;1212;99039;-66
2024/04/20 04:30:10;;;;;;;11.30;8.10;;;;;;;6.46;87.14;99612.14;110978;1212;138768;-66
2024/04/20 04:32:36;;;;;;;11.70;7.60;;;;;;;6.45;87.07;99618.05;111294;1212;99097;-66
2024/04/20 04:35:01;;;;;;;12.00;7.40;;;;;;;6.43;87.09;99626.80;110957;1206;138624;-66
2024/04/20 04:37:28;;;;;;;12.30;7.20;;;;;;;6.44;87.20;99623.59;111089;1212;98922;-66
2024/04/20 04:39:55;;;;;;;11.80;7.40;;;;;;;6.41;87.17;99630.96;111087;1210;100548;-66
2024/04/20 04:42:20;;;;;;;10.80;7.10;;;;;;;6.43;87.18;99634.45;110901;1206;139993;-66
2024/04/20 04:44:45;;;;;;;13.00;8.50;;;;;;;6.42;87.10;99636.60;111165;1206;98971;-66
2024/04/20 04:47:10;;;;;;;13.20;7.70;;;;;;;6.40;87.01;99643.46;110922;1206;139235;-67
2024/04/20 04:49:36;;;;;;;15.60;7.70;;;;;;;6.38;86.94;99646.54;111068;1206;99062;-67
2024/04/20 04:52:01;;;;;;;14.30;7.80;;;;;;;6.39;87.03;99643.69;111160;1206;99108;-66
2024/04/20 04:54:26;;;;;;;11.80;7.90;;;;;;;6.40;87.09;99648.40;110953;1207;138511;-66
2024/04/20 04:56:52;;;;;;;10.70;7.30;;;;;;;6.42;87.15;99649.40;111158;1212;100607;-67
2024/04/20 04:59:21;;;;;;;13.20;8.30;;;;;;;6.44;87.17;99655.69;110977;1207;138889;-66
2024/04/20 05:01:46;;;;;;;15.00;8.80;;;;;;;6.43;87.08;99661.05;110915;1206;100024;-66
2024/04/20 05:04:11;;;;;;;13.10;8.60;;;;;;;6.45;87.14;99662.04;111038;1212;99067;-66
2024/04/20 05:06:37;;;;;;;14.70;9.10;;;;;;;6.46;86.93;99663.08;110961;1206;138325;-66
2024/04/20 05:09:03;;;;;;;13.00;8.60;;;;;;;6.48;87.27;99666.89;111071;1206;99039;-66
2024/04/20 05:11:29;;;;;;;20.80;10.20;;;;;;;6.48;87.11;99672.21;110877;1207;140056;-67
2024/04/20 05:13:54;;;;;;;15.80;9.80;;;;;;;6.48;87.09;99679.83;111161;1212;99016;-67
2024/04/20 05:16:20;;;;;;;19.30;10.50;;;;;;;6.48;87.07;99682.11;110552;1212;138533;-67
2024/04/20 05:18:45;;;;;;;18.20;10.90;;;;;;;6.50;87.08;99690.59;110702;1205;98916;-67
2024/04/20 05:21:10;;;;;;;18.00;11.10;;;;;;;6.49;87.11;99692.20;110902;1206;107656;-66
2024/04/20 05:23:35;;;;;;;16.60;9.50;;;;;;;6.50;87.24;99698.19;110837;1206;139056;-66
2024/04/20 05:26:02;;;;;;;16.60;10.00;;;;;;;6.52;87.12;99700.60;111218;1212;99284;-67
2024/04/20 05:28:27;;;;;;;17.30;10.40;;;;;;;6.54;87.20;99710.80;110908;1206;139405;-66
2024/04/20 05:30:52;;;;;;;14.80;9.80;;;;;;;6.56;87.15;99712.16;111103;1207;99022;-66
2024/04/20 05:33:17;;;;;;;16.10;9.90;;;;;;;6.58;87.27;99717.74;110948;1206;97786;-66
2024/04/20 05:35:42;;;;;;;17.10;10.60;;;;;;;6.58;87.14;99723.41;110878;1212;138349;-67
2024/04/20 05:38:07;;;;;;;18.70;10.90;;;;;;;6.57;87.07;99727.02;111067;1212;98932;-67
2024/04/20 05:40:37;;;;;;;18.40;9.20;;;;;;;6.58;87.16;99729.11;110705;1211;139439;-66
2024/04/20 05:43:02;;;;;;;13.70;9.30;;;;;;;6.60;87.23;99732.58;111114;1206;99432;-66
2024/04/20 05:45:27;;;;;;;16.90;9.80;;;;;;;6.61;87.28;99737.48;110992;1212;98395;-67
2024/04/20 05:47:53;;;;;;;12.90;9.20;;;;;;;6.62;87.21;99737.63;110963;1212;140890;-66
2024/04/20 05:50:18;;;;;;;16.80;10.20;;;;;;;6.64;87.13;99738.98;110903;1212;99076;-67
2024/04/20 05:52:43;;;;;;;14.60;8.90;;;;;;;6.62;86.99;99744.39;110952;1206;140052;-66
2024/04/20 05:55:08;;;;;;;13.60;9.30;;;;;;;6.63;87.13;99750.91;111079;1211;99050;-67
2024/04/20 05:57:34;;;;;;;15.60;8.30;;;;;;;6.64;87.09;99752.48;110904;1207;98929;-66
2024/04/20 05:59:59;;;;;;;11.20;7.60;;;;;;;6.65;87.10;99755.09;111013;1206;139762;-66
2024/04/20 06:02:27;;;;;;;10.80;8.20;;;;;;;6.67;87.18;99758.91;110966;1206;99096;-66
2024/04/20 06:04:53;;;;;;;14.70;7.90;;;;;;;6.69;87.09;99767.72;110900;1210;139261;-67
2024/04/20 06:07:19;;;;;;;14.00;8.40;;;;;;;6.69;87.10;99768.95;111044;1210;99029;-66
2024/04/20 06:09:45;;;;;;;9.80;7.20;;;;;;;6.70;87.04;99773.73;111078;1212;99519;-66
2024/04/20 06:12:10;;;;;;;16.20;8.00;;;;;;;6.70;87.06;99777.42;110927;1212;139257;-67
2024/04/20 06:14:36;;;;;;;12.60;7.50;;;;;;;6.72;87.16;99781.44;111358;1212;100211;-66
2024/04/20 06:17:01;;;;;;;9.80;7.20;;;;;;;6.72;87.16;99784.62;110980;1206;139867;-66
2024/04/20 06:19:27;;;;;;;9.90;6.30;;;;;;;6.73;87.13;99792.39;110883;1211;99077;-66
2024/04/20 06:21:54;;;;;;;7.60;5.80;;;;;;;6.75;87.13;99794.09;111086;1206;99154;-66
2024/04/20 06:24:19;;;;;;;6.00;4.60;;;;;;;6.77;87.20;99799.51;110855;1212;139008;-66
2024/04/20 06:26:44;;;;;;;5.90;3.70;;;;;;;6.80;87.20;99806.10;110913;1212;99038;-68
2024/04/20 06:29:11;;;;;;;3.50;3.00;;;;;;;6.81;87.15;99810.52;111640;1206;138982;-67
2024/04/20 06:31:37;;;;;;;4.50;2.50;;;;;;;6.84;87.13;99820.16;113171;1205;99193;-67
2024/04/20 06:34:04;;;;;;;1.50;1.40;;;;;;;6.88;87.12;99824.80;113211;1206;96767;-67
2024/04/20 06:36:29;;;;;;;2.10;1.80;;;;;;;6.91;87.02;99830.37;113017;1206;138883;-67
2024/04/20 06:38:55;;;;;;;1.60;1.50;;;;;;;6.91;86.67;99834.47;111902;1212;99096;-67
2024/04/20 06:41:20;;;;;;;4.90;3.20;;;;;;;6.88;86.88;99841.85;110882;1210;138640;-67
2024/04/20 06:43:45;;;;;;;1.60;1.50;;;;;;;6.90;86.81;99845.67;111068;1206;99026;-66
2024/04/20 06:46:11;;;;;;;1.20;1.00;;;;;;;6.86;86.72;99851.00;111006;1206;99448;-67
2024/04/20 06:48:36;;;;;;;1.00;1.00;;;;;;;6.82;86.70;99856.26;110753;1212;138256;-66
2024/04/20 06:51:02;;;;;;;1.00;0.70;;;;;;;6.79;86.71;99860.64;111162;1206;98976;-66
2024/04/20 06:53:27;;;;;;;0.70;0.60;;;;;;;6.78;86.61;99866.56;110776;1206;140389;-66
2024/04/20 06:55:57;;;;;;;0.60;0.50;;;;;;;6.74;86.52;99873.68;111159;1206;99048;-66
2024/04/20 06:58:22;;;;;;;0.40;0.40;;;;;;;6.72;86.60;99879.77;110839;1206;139199;-68
2024/04/20 07:00:47;;;;;;;1.40;1.10;;;;;;;6.73;86.57;99880.44;111045;1206;99162;-67
2024/04/20 07:03:12;;;;;;;1.00;0.90;;;;;;;6.73;86.45;99885.59;111131;1212;98948;-67
2024/04/20 07:05:37;;;;;;;3.50;1.00;;;;;;;6.73;86.36;99892.33;110904;1206;139121;-67
2024/04/20 07:08:03;;;;;;;0.70;0.70;;;;;;;6.68;86.32;99893.98;111130;1212;99010;-68
2024/04/20 07:10:29;;;;;;;0.60;0.60;;;;;;;6.65;86.18;99900.81;110884;1206;139005;-67
2024/04/20 07:12:55;;;;;;;1.20;0.70;;;;;;;6.67;86.34;99910.88;111135;1206;99090;-67
2024/04/20 07:15:20;;;;;;;3.30;1.30;;;;;;;6.69;86.21;99912.73;111194;1206;99007;-70
2024/04/20 07:17:47;;;;;;;1.00;0.80;;;;;;;6.75;86.28;99917.85;111167;1206;140128;-70
2024/04/20 07:20:13;;;;;;;0.70;0.60;;;;;;;6.79;86.04;99923.53;111164;1212;99117;-70
2024/04/20 07:22:38;;;;;;;0.50;0.50;;;;;;;6.79;85.90;99925.67;110996;1206;141783;-69
2024/04/20 07:25:04;;;;;;;1.20;0.60;;;;;;;6.79;85.79;99935.27;111149;1206;99001;-70
2024/04/20 07:27:29;;;;;;;1.30;0.70;;;;;;;6.76;85.74;99943.36;111033;1212;99017;-70
2024/04/20 07:29:54;;;;;;;4.70;1.00;;;;;;;6.75;85.75;99953.16;111034;1206;138642;-70
2024/04/20 07:32:19;;;;;;;3.20;1.20;;;;;;;6.73;85.57;99958.03;110957;1212;98958;-71
2024/04/20 07:34:45;;;;;;;3.10;0.80;;;;;;;6.69;85.41;99964.23;110980;1206;138591;-69
2024/04/20 07:37:10;;;;;;;4.00;0.80;;;;;;;6.64;85.25;99968.70;111176;1206;99033;-70
2024/04/20 07:39:35;;;;;;;1.10;0.70;;;;;;;6.60;85.36;99976.63;111183;1206;99043;-69
2024/04/20 07:42:00;;;;;;;0.90;0.80;;;;;;;6.60;85.15;99980.92;111194;1210;138691;-68
2024/04/20 07:44:25;;;;;;;6.50;1.00;;;;;;;6.59;85.22;99985.91;111186;1212;98984;-67
2024/04/20 07:47:03;;;;;;;4.00;0.70;;;;;;;6.60;85.11;99995.13;111158;1206;138687;-67
2024/04/20 07:49:28;;;;;;;4.70;0.80;;;;;;;6.56;84.86;99997.38;111202;1206;112367;-67
2024/04/20 07:51:53;;;;;;;1.00;0.90;;;;;;;6.56;84.87;100005.58;111250;1206;99033;-67
2024/04/20 07:54:19;;;;;;;1.60;0.80;;;;;;;6.57;84.76;100004.46;111116;1206;138397;-67
2024/04/20 07:56:45;;;;;;;1.70;0.80;;;;;;;6.57;84.58;100011.56;111197;1206;97174;-67
2024/04/20 07:59:10;;;;;;;1.50;1.00;;;;;;;6.55;84.62;100017.33;111112;1211;139124;-69
2024/04/20 08:01:35;;;;;;;2.50;0.60;;;;;;;6.58;84.75;100020.24;111286;1206;98933;-64
2024/04/20 08:04:01;;;;;;;1.50;0.80;;;;;;;6.59;84.50;100026.91;111255;1206;99703;-64
2024/04/20 08:06:26;;;;;;;1.00;0.90;;;;;;;6.58;84.29;100039.04;111233;1206;140084;-64
2024/04/20 08:08:51;;;;;;;5.70;0.90;;;;;;;6.59;84.43;100046.62;110964;1206;99135;-63
2024/04/20 08:11:18;;;;;;;2.50;0.90;;;;;;;6.62;84.36;100046.52;111023;1212;139365;-65
2024/04/20 08:13:43;;;;;;;2.10;0.80;;;;;;;6.62;84.02;100054.52;111166;1211;99444;-64
2024/04/20 08:16:08;;;;;;;5.50;0.90;;;;;;;6.62;84.06;100060.20;111208;1206;98836;-64
2024/04/20 08:18:33;;;;;;;1.60;1.20;;;;;;;6.63;84.12;100071.52;110988;1212;139733;-64
2024/04/20 08:20:59;;;;;;;3.40;1.10;;;;;;;6.64;84.03;100072.00;111166;1206;99051;-64
2024/04/20 08:23:24;;;;;;;3.20;0.90;;;;;;;6.66;83.83;100075.13;111048;1212;138500;-64
2024/04/20 08:25:50;;;;;;;2.60;1.70;;;;;;;6.66;83.63;100080.64;111143;1206;99044;-64
2024/04/20 08:28:18;;;;;;;1.80;1.40;;;;;;;6.68;83.90;100084.65;111108;1206;99022;-64
2024/04/20 08:30:43;;;;;;;1.60;1.20;;;;;;;6.70;83.69;100094.70;111046;1206;138332;-64
2024/04/20 08:33:08;;;;;;;4.50;1.30;;;;;;;6.69;83.73;100098.64;111251;1205;99376;-64
2024/04/20 08:35:33;;;;;;;1.00;0.90;;;;;;;6.60;83.33;100108.39;110966;1212;139152;-64
2024/04/20 08:37:59;;;;;;;1.60;1.10;;;;;;;6.51;83.34;100117.04;111180;1206;98900;-63
2024/04/20 08:40:25;;;;;;;5.80;1.50;;;;;;;6.45;83.18;100120.27;110938;1212;139652;-64
2024/04/20 08:42:52;;;;;;;3.80;1.80;;;;;;;6.45;83.35;100124.33;111211;1212;98914;-64
2024/04/20 08:45:21;;;;;;;2.30;1.30;;;;;;;6.50;83.43;100126.48;111212;1206;99117;-64
2024/04/20 08:47:47;;;;;;;1.60;0.70;;;;;;;6.54;83.29;100132.56;110978;1210;138674;-64
2024/04/20 08:50:15;;;;;;;1.30;1.00;;;;;;;6.57;83.17;100138.66;111159;1211;99198;-64
2024/04/20 08:52:41;;;;;;;3.30;1.20;;;;;;;6.58;83.07;100141.63;111016;1206;138920;-64
2024/04/20 08:55:08;;;;;;;1.50;0.90;;;;;;;6.57;83.05;100148.59;111223;1212;98976;-63
2024/04/20 08:57:37;;;;;;;2.30;1.10;;;;;;;6.54;83.04;100156.85;111134;1206;108088;-64
2024/04/20 09:00:04;;;;;;;2.40;1.40;;;;;;;6.54;82.93;100159.01;110958;1212;139992;-64
2024/04/20 09:02:34;;;;;;;2.50;1.00;;;;;;;6.48;82.68;100168.07;111328;1206;99047;-64
2024/04/20 09:05:02;;;;;;;1.80;1.00;;;;;;;6.43;82.75;100170.02;111049;1212;138665;-64
2024/04/20 09:07:27;;;;;;;1.80;0.90;;;;;;;6.43;82.58;100176.92;111178;1206;100122;-63
2024/04/20 09:09:52;;;;;;;1.20;1.10;;;;;;;6.41;82.58;100180.20;111184;1206;98974;-65
2024/04/20 09:12:18;;;;;;;1.30;1.10;;;;;;;6.43;82.63;100190.77;111032;1206;139952;-64
2024/04/20 09:14:43;;;;;;;1.20;1.10;;;;;;;6.43;82.56;100194.52;111216;1206;98965;-64
2024/04/20 09:17:08;;;;;;;6.20;1.60;;;;;;;6.41;82.40;100197.23;111041;1211;138981;-64
2024/04/20 09:19:34;;;;;;;4.80;2.00;;;;;;;6.43;82.59;100202.16;110680;1211;99031;-64
2024/04/20 09:22:06;;;;;;;6.10;1.50;;;;;;;6.45;82.42;100208.48;110765;1210;99013;-64
2024/04/20 09:24:31;;;;;;;3.20;1.20;;;;;;;6.44;82.37;100211.70;111024;1210;138447;-64
2024/04/20 09:26:58;;;;;;;2.90;1.40;;;;;;;6.42;82.21;100219.56;111045;1206;98949;-64
2024/04/20 09:29:23;;;;;;;4.10;1.50;;;;;;;6.43;82.36;100226.29;110974;1206;138490;-64
2024/04/20 09:31:51;;;;;;;2.20;1.40;;;;;;;6.48;82.31;100230.01;111159;1206;99009;-64
2024/04/20 09:34:19;;;;;;;2.90;1.60;;;;;;;6.55;82.31;100230.32;111098;1211;112384;-64
2024/04/20 09:36:45;;;;;;;2.10;1.80;;;;;;;6.64;82.18;100231.78;111077;1211;100971;-64
2024/04/20 09:39:10;;;;;;;1.60;1.50;;;;;;;6.66;82.01;100235.27;111120;1205;99457;-63
2024/04/20 09:41:37;;;;;;;3.00;1.80;;;;;;;6.72;82.10;100241.46;111065;1212;138645;-64
2024/04/20 09:44:03;;;;;;;4.60;1.70;;;;;;;6.74;81.99;100244.58;111199;1211;113055;-64
2024/04/20 09:46:32;;;;;;;3.10;1.60;;;;;;;6.74;82.07;100251.33;111049;1206;139137;-64
2024/04/20 09:49:04;;;;;;;2.30;1.60;;;;;;;6.72;81.92;100258.31;111133;1210;108125;-64
2024/04/20 09:51:39;;;;;;;2.50;1.40;;;;;;;6.73;81.98;100264.49;110974;1206;98983;-64
2024/04/20 09:54:12;;;;;;;2.60;1.50;;;;;;;6.70;81.72;100266.55;111120;1206;138912;-63
2024/04/20 09:56:37;;;;;;;1.90;1.50;;;;;;;6.72;81.61;100271.48;111250;1206;112371;-63
2024/04/20 09:59:05;;;;;;;3.90;1.60;;;;;;;6.71;81.56;100270.25;111024;1206;139198;-64
2024/04/20 10:01:31;;;;;;;3.30;1.90;;;;;;;6.74;81.58;100275.29;111145;1210;99006;-64
2024/04/20 10:03:56;;;;;;;2.90;1.40;;;;;;;6.77;81.69;100279.09;111198;1206;101538;-63
2024/04/20 10:06:23;;;;;;;3.40;1.80;;;;;;;6.78;81.51;100281.90;111104;1206;141271;-64
2024/04/20 10:08:49;;;;;;;1.30;1.10;;;;;;;6.79;81.56;100285.45;111082;1207;99048;-63
2024/04/20 10:11:16;;;;;;;2.00;1.50;;;;;;;6.81;81.54;100290.50;111003;1211;140375;-64
2024/04/20 10:13:43;;;;;;;3.80;1.70;;;;;;;6.74;81.21;100294.13;111184;1205;99056;-64
2024/04/20 10:16:11;;;;;;;2.40;1.80;;;;;;;6.74;81.38;100296.44;111229;1206;99042;-64
2024/04/20 10:18:36;;;;;;;3.90;1.70;;;;;;;6.76;81.38;100298.13;111020;1205;138398;-64
2024/04/20 10:21:01;;;;;;;2.60;1.60;;;;;;;6.77;81.24;100307.35;111255;1206;99134;-64
2024/04/20 10:23:28;;;;;;;1.70;1.40;;;;;;;6.71;80.97;100318.89;111095;1206;138734;-63
2024/04/20 10:25:54;;;;;;;1.60;1.30;;;;;;;6.71;81.10;100317.48;111188;1206;112888;-64
2024/04/20 10:28:47;;;;;;;2.70;1.50;;;;;;;6.70;80.83;100321.94;111138;1205;98232;-64
2024/04/20 10:31:12;;;;;;;3.80;1.70;;;;;;;6.69;80.95;100326.41;111111;1205;107849;-64
2024/04/20 10:33:41;;;;;;;5.60;1.50;;;;;;;6.62;80.64;100330.58;111113;1223;100419;-64
2024/04/20 10:36:09;;;;;;;2.10;1.60;;;;;;;6.58;80.78;100332.30;110984;1210;138700;-64
2024/04/20 10:38:34;;;;;;;4.40;1.80;;;;;;;6.57;80.82;100337.81;111109;1209;98960;-64
2024/04/20 10:41:12;;;;;;;3.20;1.50;;;;;;;6.57;80.76;100341.55;111025;1205;138650;-64
2024/04/20 10:43:37;;;;;;;7.80;2.00;;;;;;;6.55;80.77;100343.59;111245;1206;107959;-63
2024/04/20 10:46:04;;;;;;;3.40;2.20;;;;;;;6.56;80.82;100350.48;111086;1205;99042;-64
2024/04/20 10:48:31;;;;;;;7.00;2.30;;;;;;;6.55;80.64;100349.79;111107;1209;138421;-64
2024/04/20 10:50:58;;;;;;;3.50;1.90;;;;;;;6.53;80.57;100356.77;111160;1207;98922;-65
2024/04/20 10:53:24;;;;;;;2.50;2.10;;;;;;;6.51;80.51;100359.50;111048;1206;138265;-63
2024/04/20 10:55:56;;;;;;;4.30;1.70;;;;;;;6.47;80.28;100366.73;111113;1206;99032;-62
2024/04/20 10:58:24;;;;;;;2.80;1.70;;;;;;;6.39;80.33;100368.05;111078;1206;99288;-63
2024/04/20 11:00:51;;;;;;;5.20;1.80;;;;;;;6.35;80.33;100373.48;111217;1206;140206;-63
2024/04/20 11:03:16;;;;;;;2.50;1.80;;;;;;;6.32;80.10;100378.55;111272;1209;99019;-64
2024/04/20 11:05:59;;;;;;;3.60;1.50;;;;;;;6.34;80.17;100385.21;111025;1206;138814;-64
2024/04/20 11:08:25;;;;;;;4.20;1.80;;;;;;;6.38;80.04;100387.77;111113;1206;99812;-63
2024/04/20 11:10:55;;;;;;;2.60;1.40;;;;;;;6.37;79.84;100394.35;111129;1211;138678;-64
2024/04/20 11:13:21;;;;;;;3.80;2.40;;;;;;;6.36;79.97;100399.02;111138;1206;112958;-64
2024/04/20 11:15:47;;;;;;;3.80;1.90;;;;;;;6.36;79.83;100406.98;111247;1209;99520;-64